sensor_id;sensor_type;location;lat;lon;timestamp;pressure;altitude;pressure_sealevel;temperature;humidity
34658;BME280;20865;43.312;27.152;2022-07-06T00:00:00;100271.67;;;26.33;38.41
34658;BME280;20865;43.312;27.152;2022-07-06T00:02:27;100274.48;;;26.27;38.38
34658;BME280;20865;43.312;27.152;2022-07-06T00:04:55;100280.12;;;26.26;38.63
34658;BME280;20865;43.312;27.152;2022-07-06T00:07:24;100272.09;;;26.28;38.70
34658;BME280;20865;43.312;27.152;2022-07-06T00:09:52;100271.02;;;26.25;38.89
34658;BME280;20865;43.312;27.152;2022-07-06T00:12:19;100266.21;;;26.23;38.89
34658;BME280;20865;43.312;27.152;2022-07-06T00:14:47;100268.60;;;26.22;38.50
34658;BME280;20865;43.312;27.152;2022-07-06T00:17:14;100256.35;;;26.17;38.46
34658;BME280;20865;43.312;27.152;2022-07-06T00:19:42;100253.62;;;26.17;38.11
34658;BME280;20865;43.312;27.152;2022-07-06T00:22:10;100256.47;;;26.01;38.42
34658;BME280;20865;43.312;27.152;2022-07-06T00:24:38;100256.31;;;26.03;38.62
34658;BME280;20865;43.312;27.152;2022-07-06T00:27:05;100258.83;;;26.00;38.67
34658;BME280;20865;43.312;27.152;2022-07-06T00:29:33;100248.97;;;25.94;38.67
34658;BME280;20865;43.312;27.152;2022-07-06T00:32:01;100248.84;;;25.95;38.46
34658;BME280;20865;43.312;27.152;2022-07-06T00:34:28;100238.53;;;25.93;38.36
34658;BME280;20865;43.312;27.152;2022-07-06T00:36:56;100249.06;;;25.88;38.31
34658;BME280;20865;43.312;27.152;2022-07-06T00:39:23;100257.40;;;25.86;38.37
34658;BME280;20865;43.312;27.152;2022-07-06T00:41:52;100251.58;;;25.85;38.37
34658;BME280;20865;43.312;27.152;2022-07-06T00:44:20;100250.66;;;25.81;38.31
34658;BME280;20865;43.312;27.152;2022-07-06T00:46:48;100241.46;;;25.76;38.50
34658;BME280;20865;43.312;27.152;2022-07-06T00:49:15;100238.09;;;25.69;38.70
34658;BME280;20865;43.312;27.152;2022-07-06T00:52:02;100242.48;;;25.65;38.83
34658;BME280;20865;43.312;27.152;2022-07-06T00:54:31;100234.56;;;25.62;38.79
34658;BME280;20865;43.312;27.152;2022-07-06T00:56:59;100242.41;;;25.61;38.65
34658;BME280;20865;43.312;27.152;2022-07-06T00:59:28;100241.42;;;25.53;38.60
34658;BME280;20865;43.312;27.152;2022-07-06T01:01:56;100238.46;;;25.50;38.64
34658;BME280;20865;43.312;27.152;2022-07-06T01:04:23;100235.00;;;25.48;38.24
34658;BME280;20865;43.312;27.152;2022-07-06T01:06:51;100227.39;;;25.42;38.25
34658;BME280;20865;43.312;27.152;2022-07-06T01:09:19;100227.67;;;25.39;38.32
34658;BME280;20865;43.312;27.152;2022-07-06T01:11:48;100233.18;;;25.24;38.68
34658;BME280;20865;43.312;27.152;2022-07-06T01:14:15;100229.94;;;25.24;38.74
34658;BME280;20865;43.312;27.152;2022-07-06T01:16:44;100228.09;;;25.25;38.91
34658;BME280;20865;43.312;27.152;2022-07-06T01:19:11;100236.42;;;25.23;39.02
34658;BME280;20865;43.312;27.152;2022-07-06T01:21:39;100233.77;;;25.17;39.18
34658;BME280;20865;43.312;27.152;2022-07-06T01:24:07;100239.71;;;25.17;39.12
34658;BME280;20865;43.312;27.152;2022-07-06T01:26:35;100236.86;;;25.18;39.12
34658;BME280;20865;43.312;27.152;2022-07-06T01:29:02;100225.19;;;25.16;39.21
34658;BME280;20865;43.312;27.152;2022-07-06T01:31:30;100231.04;;;25.17;39.16
34658;BME280;20865;43.312;27.152;2022-07-06T01:33:58;100221.02;;;25.12;39.01
34658;BME280;20865;43.312;27.152;2022-07-06T01:36:26;100226.14;;;25.06;38.96
34658;BME280;20865;43.312;27.152;2022-07-06T01:38:55;100221.61;;;25.10;38.98
34658;BME280;20865;43.312;27.152;2022-07-06T01:41:25;100217.14;;;25.00;39.11
34658;BME280;20865;43.312;27.152;2022-07-06T01:43:53;100216.08;;;25.06;39.12
34658;BME280;20865;43.312;27.152;2022-07-06T01:46:20;100222.98;;;25.01;39.39
34658;BME280;20865;43.312;27.152;2022-07-06T01:48:48;100221.67;;;24.95;39.70
34658;BME280;20865;43.312;27.152;2022-07-06T01:51:16;100216.94;;;24.97;39.84
34658;BME280;20865;43.312;27.152;2022-07-06T01:53:44;100223.77;;;24.97;39.81
34658;BME280;20865;43.312;27.152;2022-07-06T01:56:12;100217.92;;;24.96;39.49
34658;BME280;20865;43.312;27.152;2022-07-06T01:58:41;100213.78;;;25.02;39.10
34658;BME280;20865;43.312;27.152;2022-07-06T02:01:15;100212.34;;;24.98;38.74
34658;BME280;20865;43.312;27.152;2022-07-06T02:03:38;100215.62;;;24.91;38.70
34658;BME280;20865;43.312;27.152;2022-07-06T02:06:06;100217.19;;;24.84;38.80
34658;BME280;20865;43.312;27.152;2022-07-06T02:08:34;100216.69;;;24.85;38.69
34658;BME280;20865;43.312;27.152;2022-07-06T02:11:07;100213.87;;;24.81;38.93
34658;BME280;20865;43.312;27.152;2022-07-06T02:13:37;100213.05;;;24.75;39.11
34658;BME280;20865;43.312;27.152;2022-07-06T02:16:06;100212.98;;;24.70;39.43
34658;BME280;20865;43.312;27.152;2022-07-06T02:18:33;100206.66;;;24.70;39.53
34658;BME280;20865;43.312;27.152;2022-07-06T02:21:01;100215.48;;;24.68;38.84
34658;BME280;20865;43.312;27.152;2022-07-06T02:23:28;100216.41;;;24.63;38.78
34658;BME280;20865;43.312;27.152;2022-07-06T02:25:56;100218.09;;;24.54;38.88
34658;BME280;20865;43.312;27.152;2022-07-06T02:28:24;100217.65;;;24.49;39.12
34658;BME280;20865;43.312;27.152;2022-07-06T02:30:52;100223.47;;;24.50;39.29
34658;BME280;20865;43.312;27.152;2022-07-06T02:33:19;100223.70;;;24.53;39.50
34658;BME280;20865;43.312;27.152;2022-07-06T02:35:47;100227.71;;;24.48;39.76
34658;BME280;20865;43.312;27.152;2022-07-06T02:38:14;100223.70;;;24.53;39.53
34658;BME280;20865;43.312;27.152;2022-07-06T02:40:42;100228.92;;;24.50;38.88
34658;BME280;20865;43.312;27.152;2022-07-06T02:43:09;100221.16;;;24.45;39.14
34658;BME280;20865;43.312;27.152;2022-07-06T02:45:37;100230.36;;;24.39;39.56
34658;BME280;20865;43.312;27.152;2022-07-06T02:48:05;100234.98;;;24.33;40.34
34658;BME280;20865;43.312;27.152;2022-07-06T02:50:33;100231.37;;;24.38;40.63
34658;BME280;20865;43.312;27.152;2022-07-06T02:53:01;100245.64;;;24.36;41.13
34658;BME280;20865;43.312;27.152;2022-07-06T02:55:28;100251.45;;;24.37;41.57
34658;BME280;20865;43.312;27.152;2022-07-06T02:57:56;100250.72;;;24.40;41.96
34658;BME280;20865;43.312;27.152;2022-07-06T03:00:23;100246.50;;;24.42;41.98
34658;BME280;20865;43.312;27.152;2022-07-06T03:02:51;100244.48;;;24.44;41.98
34658;BME280;20865;43.312;27.152;2022-07-06T03:05:19;100235.83;;;24.54;42.00
34658;BME280;20865;43.312;27.152;2022-07-06T03:07:46;100230.69;;;24.61;41.99
34658;BME280;20865;43.312;27.152;2022-07-06T03:10:14;100231.28;;;24.64;42.09
34658;BME280;20865;43.312;27.152;2022-07-06T03:12:41;100231.74;;;24.69;42.21
34658;BME280;20865;43.312;27.152;2022-07-06T03:15:10;100233.77;;;24.77;42.27
34658;BME280;20865;43.312;27.152;2022-07-06T03:17:38;100236.08;;;24.82;42.31
34658;BME280;20865;43.312;27.152;2022-07-06T03:20:07;100233.15;;;24.89;42.41
34658;BME280;20865;43.312;27.152;2022-07-06T03:22:34;100234.16;;;24.88;42.62
34658;BME280;20865;43.312;27.152;2022-07-06T03:25:02;100231.86;;;24.93;42.55
34658;BME280;20865;43.312;27.152;2022-07-06T03:27:30;100233.33;;;24.97;42.52
34658;BME280;20865;43.312;27.152;2022-07-06T03:29:58;100234.63;;;25.03;42.25
34658;BME280;20865;43.312;27.152;2022-07-06T03:32:26;100247.58;;;25.01;42.25
34658;BME280;20865;43.312;27.152;2022-07-06T03:34:54;100236.27;;;25.00;42.34
34658;BME280;20865;43.312;27.152;2022-07-06T03:37:21;100235.87;;;25.04;42.29
34658;BME280;20865;43.312;27.152;2022-07-06T03:39:49;100230.83;;;25.09;42.41
34658;BME280;20865;43.312;27.152;2022-07-06T03:42:16;100240.21;;;24.91;42.51
34658;BME280;20865;43.312;27.152;2022-07-06T03:44:44;100244.35;;;24.86;42.51
34658;BME280;20865;43.312;27.152;2022-07-06T03:47:12;100251.17;;;24.76;42.49
34658;BME280;20865;43.312;27.152;2022-07-06T03:49:39;100235.72;;;24.81;42.26
34658;BME280;20865;43.312;27.152;2022-07-06T03:52:07;100245.13;;;24.73;42.30
34658;BME280;20865;43.312;27.152;2022-07-06T03:54:34;100241.19;;;24.81;42.11
34658;BME280;20865;43.312;27.152;2022-07-06T03:57:02;100237.28;;;24.74;42.16
34658;BME280;20865;43.312;27.152;2022-07-06T03:59:30;100241.81;;;24.69;42.29
34658;BME280;20865;43.312;27.152;2022-07-06T04:01:58;100244.08;;;24.89;42.02
34658;BME280;20865;43.312;27.152;2022-07-06T04:04:25;100248.99;;;24.95;42.13
34658;BME280;20865;43.312;27.152;2022-07-06T04:06:53;100237.63;;;25.00;42.30
34658;BME280;20865;43.312;27.152;2022-07-06T04:09:21;100243.56;;;25.05;42.49
34658;BME280;20865;43.312;27.152;2022-07-06T04:11:48;100242.45;;;25.17;42.36
34658;BME280;20865;43.312;27.152;2022-07-06T04:14:16;100238.30;;;25.23;42.51
34658;BME280;20865;43.312;27.152;2022-07-06T04:16:43;100233.70;;;25.33;42.79
34658;BME280;20865;43.312;27.152;2022-07-06T04:19:11;100235.14;;;25.37;42.89
34658;BME280;20865;43.312;27.152;2022-07-06T04:21:39;100244.50;;;25.44;43.06
34658;BME280;20865;43.312;27.152;2022-07-06T04:24:06;100236.14;;;25.55;43.19
34658;BME280;20865;43.312;27.152;2022-07-06T04:26:34;100235.30;;;25.64;43.08
34658;BME280;20865;43.312;27.152;2022-07-06T04:29:02;100237.80;;;25.72;42.99
34658;BME280;20865;43.312;27.152;2022-07-06T04:31:30;100234.78;;;25.75;43.06
34658;BME280;20865;43.312;27.152;2022-07-06T04:33:57;100236.69;;;25.84;42.67
34658;BME280;20865;43.312;27.152;2022-07-06T04:36:25;100231.47;;;25.90;42.80
34658;BME280;20865;43.312;27.152;2022-07-06T04:38:53;100238.23;;;25.96;42.78
34658;BME280;20865;43.312;27.152;2022-07-06T04:41:20;100234.92;;;26.02;42.63
34658;BME280;20865;43.312;27.152;2022-07-06T04:43:48;100240.38;;;26.12;42.69
34658;BME280;20865;43.312;27.152;2022-07-06T04:46:16;100236.55;;;26.19;42.39
34658;BME280;20865;43.312;27.152;2022-07-06T04:48:43;100235.64;;;26.28;42.58
34658;BME280;20865;43.312;27.152;2022-07-06T04:51:11;100229.02;;;26.30;42.45
34658;BME280;20865;43.312;27.152;2022-07-06T04:53:40;100237.90;;;26.42;42.47
34658;BME280;20865;43.312;27.152;2022-07-06T04:56:08;100236.87;;;26.53;42.59
34658;BME280;20865;43.312;27.152;2022-07-06T04:58:35;100235.52;;;26.67;42.39
34658;BME280;20865;43.312;27.152;2022-07-06T05:01:03;100238.64;;;26.81;42.21
34658;BME280;20865;43.312;27.152;2022-07-06T05:03:31;100232.48;;;26.97;42.18
34658;BME280;20865;43.312;27.152;2022-07-06T05:05:59;100232.26;;;27.08;41.86
34658;BME280;20865;43.312;27.152;2022-07-06T05:08:27;100232.26;;;27.08;41.68
34658;BME280;20865;43.312;27.152;2022-07-06T05:10:55;100235.59;;;27.30;41.49
34658;BME280;20865;43.312;27.152;2022-07-06T05:13:22;100230.09;;;27.44;41.44
34658;BME280;20865;43.312;27.152;2022-07-06T05:15:50;100239.97;;;27.72;41.39
34658;BME280;20865;43.312;27.152;2022-07-06T05:18:18;100239.97;;;27.72;41.39
34658;BME280;20865;43.312;27.152;2022-07-06T05:20:45;100238.75;;;27.89;41.75
34658;BME280;20865;43.312;27.152;2022-07-06T05:23:14;100239.52;;;28.21;41.51
34658;BME280;20865;43.312;27.152;2022-07-06T05:25:41;100239.52;;;28.21;41.51
34658;BME280;20865;43.312;27.152;2022-07-06T05:28:09;100236.45;;;28.50;41.06
34658;BME280;20865;43.312;27.152;2022-07-06T05:30:36;100236.45;;;28.50;41.06
34658;BME280;20865;43.312;27.152;2022-07-06T05:33:04;100222.97;;;28.69;40.82
34658;BME280;20865;43.312;27.152;2022-07-06T05:35:32;100226.83;;;28.84;40.98
34658;BME280;20865;43.312;27.152;2022-07-06T05:37:59;100232.16;;;28.94;41.22
34658;BME280;20865;43.312;27.152;2022-07-06T05:40:27;100229.36;;;29.12;40.79
34658;BME280;20865;43.312;27.152;2022-07-06T05:42:54;100228.52;;;29.28;40.28
34658;BME280;20865;43.312;27.152;2022-07-06T05:45:22;100238.86;;;29.46;39.74
34658;BME280;20865;43.312;27.152;2022-07-06T05:47:50;100231.00;;;29.59;40.54
34658;BME280;20865;43.312;27.152;2022-07-06T05:50:35;100230.84;;;29.73;40.40
34658;BME280;20865;43.312;27.152;2022-07-06T05:53:04;100228.78;;;29.96;40.02
34658;BME280;20865;43.312;27.152;2022-07-06T05:55:33;100219.63;;;30.07;39.44
34658;BME280;20865;43.312;27.152;2022-07-06T05:58:01;100214.30;;;30.30;39.25
34658;BME280;20865;43.312;27.152;2022-07-06T06:00:28;100228.66;;;30.57;38.61
34658;BME280;20865;43.312;27.152;2022-07-06T06:02:56;100227.77;;;30.77;38.70
34658;BME280;20865;43.312;27.152;2022-07-06T06:05:25;100219.30;;;30.87;39.13
34658;BME280;20865;43.312;27.152;2022-07-06T06:07:53;100218.99;;;31.08;38.91
34658;BME280;20865;43.312;27.152;2022-07-06T06:10:21;100213.58;;;31.19;38.43
34658;BME280;20865;43.312;27.152;2022-07-06T06:12:49;100215.06;;;31.38;38.70
34658;BME280;20865;43.312;27.152;2022-07-06T06:15:18;100216.70;;;31.16;39.18
34658;BME280;20865;43.312;27.152;2022-07-06T06:17:46;100213.36;;;31.33;38.68
34658;BME280;20865;43.312;27.152;2022-07-06T06:20:14;100215.48;;;31.50;38.58
34658;BME280;20865;43.312;27.152;2022-07-06T06:22:49;100217.06;;;31.86;37.85
34658;BME280;20865;43.312;27.152;2022-07-06T06:25:18;100216.80;;;32.00;37.81
34658;BME280;20865;43.312;27.152;2022-07-06T06:27:46;100218.73;;;32.14;37.45
34658;BME280;20865;43.312;27.152;2022-07-06T06:30:14;100214.80;;;32.28;37.28
34658;BME280;20865;43.312;27.152;2022-07-06T06:32:42;100220.51;;;32.45;37.37
34658;BME280;20865;43.312;27.152;2022-07-06T06:35:10;100207.21;;;32.59;37.30
34658;BME280;20865;43.312;27.152;2022-07-06T06:37:38;100209.22;;;32.65;36.94
34658;BME280;20865;43.312;27.152;2022-07-06T06:40:06;100204.04;;;32.92;36.74
34658;BME280;20865;43.312;27.152;2022-07-06T06:42:36;100212.95;;;32.98;36.48
34658;BME280;20865;43.312;27.152;2022-07-06T06:45:06;100201.98;;;33.15;36.22
34658;BME280;20865;43.312;27.152;2022-07-06T06:47:33;100199.13;;;33.34;35.82
34658;BME280;20865;43.312;27.152;2022-07-06T06:50:01;100199.84;;;33.32;36.46
34658;BME280;20865;43.312;27.152;2022-07-06T06:52:29;100195.93;;;33.52;35.62
34658;BME280;20865;43.312;27.152;2022-07-06T06:54:56;100196.46;;;33.52;36.25
34658;BME280;20865;43.312;27.152;2022-07-06T06:57:24;100192.55;;;33.67;35.62
34658;BME280;20865;43.312;27.152;2022-07-06T06:59:52;100192.35;;;33.80;36.07
34658;BME280;20865;43.312;27.152;2022-07-06T07:02:19;100198.51;;;33.93;35.37
34658;BME280;20865;43.312;27.152;2022-07-06T07:04:47;100194.23;;;34.11;35.00
34658;BME280;20865;43.312;27.152;2022-07-06T07:07:15;100196.25;;;34.13;35.06
34658;BME280;20865;43.312;27.152;2022-07-06T07:09:42;100188.70;;;34.29;34.99
34658;BME280;20865;43.312;27.152;2022-07-06T07:12:10;100197.02;;;34.46;34.34
34658;BME280;20865;43.312;27.152;2022-07-06T07:14:38;100198.47;;;34.53;34.55
34658;BME280;20865;43.312;27.152;2022-07-06T07:17:06;100200.53;;;34.61;34.98
34658;BME280;20865;43.312;27.152;2022-07-06T07:19:33;100196.98;;;34.74;34.06
34658;BME280;20865;43.312;27.152;2022-07-06T07:22:01;100200.00;;;34.86;33.88
34658;BME280;20865;43.312;27.152;2022-07-06T07:24:29;100198.52;;;34.90;34.53
34658;BME280;20865;43.312;27.152;2022-07-06T07:26:56;100199.81;;;35.05;33.43
34658;BME280;20865;43.312;27.152;2022-07-06T07:29:24;100205.02;;;35.04;33.53
34658;BME280;20865;43.312;27.152;2022-07-06T07:31:52;100202.48;;;35.09;33.03
34658;BME280;20865;43.312;27.152;2022-07-06T07:34:19;100205.63;;;35.23;33.39
34658;BME280;20865;43.312;27.152;2022-07-06T07:36:47;100205.33;;;35.29;33.50
34658;BME280;20865;43.312;27.152;2022-07-06T07:39:15;100204.36;;;35.39;33.48
34658;BME280;20865;43.312;27.152;2022-07-06T07:41:42;100208.66;;;35.48;32.42
34658;BME280;20865;43.312;27.152;2022-07-06T07:44:10;100211.36;;;35.52;32.81
34658;BME280;20865;43.312;27.152;2022-07-06T07:46:37;100207.21;;;35.59;32.38
34658;BME280;20865;43.312;27.152;2022-07-06T07:49:05;100207.00;;;35.74;32.50
34658;BME280;20865;43.312;27.152;2022-07-06T07:51:34;100203.80;;;35.70;32.58
34658;BME280;20865;43.312;27.152;2022-07-06T07:54:01;100202.64;;;35.82;32.40
34658;BME280;20865;43.312;27.152;2022-07-06T07:56:29;100201.03;;;35.90;32.58
34658;BME280;20865;43.312;27.152;2022-07-06T07:58:56;100202.19;;;35.98;31.88
34658;BME280;20865;43.312;27.152;2022-07-06T08:01:24;100204.27;;;36.00;32.12
34658;BME280;20865;43.312;27.152;2022-07-06T08:03:52;100198.16;;;36.14;31.66
34658;BME280;20865;43.312;27.152;2022-07-06T08:06:19;100198.28;;;36.17;32.19
34658;BME280;20865;43.312;27.152;2022-07-06T08:08:47;100198.81;;;36.16;30.92
34658;BME280;20865;43.312;27.152;2022-07-06T08:11:14;100202.73;;;36.31;30.51
34658;BME280;20865;43.312;27.152;2022-07-06T08:13:42;100208.60;;;36.39;30.54
34658;BME280;20865;43.312;27.152;2022-07-06T08:16:10;100200.68;;;36.42;31.50
34658;BME280;20865;43.312;27.152;2022-07-06T08:18:38;100202.27;;;36.54;31.09
34658;BME280;20865;43.312;27.152;2022-07-06T08:21:06;100202.59;;;36.62;30.71
34658;BME280;20865;43.312;27.152;2022-07-06T08:23:33;100204.27;;;36.69;30.13
34658;BME280;20865;43.312;27.152;2022-07-06T08:26:02;100193.97;;;36.77;30.71
34658;BME280;20865;43.312;27.152;2022-07-06T08:28:30;100195.73;;;36.93;29.92
34658;BME280;20865;43.312;27.152;2022-07-06T08:30:57;100204.83;;;36.98;29.51
34658;BME280;20865;43.312;27.152;2022-07-06T08:33:25;100198.89;;;37.10;28.09
34658;BME280;20865;43.312;27.152;2022-07-06T08:35:53;100192.75;;;37.17;27.11
34658;BME280;20865;43.312;27.152;2022-07-06T08:38:21;100197.23;;;37.18;28.15
34658;BME280;20865;43.312;27.152;2022-07-06T08:40:49;100195.50;;;37.24;28.06
34658;BME280;20865;43.312;27.152;2022-07-06T08:43:18;100198.69;;;37.28;27.45
34658;BME280;20865;43.312;27.152;2022-07-06T08:45:46;100183.30;;;37.34;27.48
34658;BME280;20865;43.312;27.152;2022-07-06T08:48:16;100187.88;;;37.45;25.20
34658;BME280;20865;43.312;27.152;2022-07-06T08:50:45;100180.80;;;37.49;25.95
34658;BME280;20865;43.312;27.152;2022-07-06T08:53:12;100181.41;;;37.51;27.20
34658;BME280;20865;43.312;27.152;2022-07-06T08:55:40;100182.02;;;37.69;26.16
34658;BME280;20865;43.312;27.152;2022-07-06T08:58:08;100176.09;;;37.74;25.99
34658;BME280;20865;43.312;27.152;2022-07-06T09:00:36;100171.86;;;37.81;26.05
34658;BME280;20865;43.312;27.152;2022-07-06T09:03:05;100175.25;;;37.83;25.55
34658;BME280;20865;43.312;27.152;2022-07-06T09:05:35;100171.39;;;37.91;25.91
34658;BME280;20865;43.312;27.152;2022-07-06T09:08:03;100166.81;;;37.96;25.23
34658;BME280;20865;43.312;27.152;2022-07-06T09:10:32;100163.20;;;38.05;25.38
34658;BME280;20865;43.312;27.152;2022-07-06T09:13:08;100161.96;;;38.10;24.74
34658;BME280;20865;43.312;27.152;2022-07-06T09:15:33;100156.56;;;38.15;25.48
34658;BME280;20865;43.312;27.152;2022-07-06T09:18:03;100156.47;;;38.12;24.76
34658;BME280;20865;43.312;27.152;2022-07-06T09:20:31;100155.78;;;38.08;23.60
34658;BME280;20865;43.312;27.152;2022-07-06T09:23:00;100148.98;;;38.22;24.50
34658;BME280;20865;43.312;27.152;2022-07-06T09:25:29;100150.36;;;38.31;25.77
34658;BME280;20865;43.312;27.152;2022-07-06T09:27:58;100153.94;;;38.29;25.87
34658;BME280;20865;43.312;27.152;2022-07-06T09:30:26;100152.89;;;38.40;24.79
34658;BME280;20865;43.312;27.152;2022-07-06T09:32:56;100150.88;;;38.47;24.75
34658;BME280;20865;43.312;27.152;2022-07-06T09:35:29;100151.02;;;38.52;25.10
34658;BME280;20865;43.312;27.152;2022-07-06T09:38:14;100143.25;;;38.63;24.92
34658;BME280;20865;43.312;27.152;2022-07-06T09:40:43;100136.23;;;38.60;23.71
34658;BME280;20865;43.312;27.152;2022-07-06T09:43:19;100138.60;;;38.75;24.04
34658;BME280;20865;43.312;27.152;2022-07-06T09:45:51;100138.13;;;38.88;24.00
34658;BME280;20865;43.312;27.152;2022-07-06T09:48:21;100139.48;;;38.85;23.88
34658;BME280;20865;43.312;27.152;2022-07-06T09:50:52;100137.36;;;38.90;23.91
34658;BME280;20865;43.312;27.152;2022-07-06T09:53:21;100135.67;;;38.89;23.14
34658;BME280;20865;43.312;27.152;2022-07-06T09:55:52;100137.49;;;38.95;22.61
34658;BME280;20865;43.312;27.152;2022-07-06T09:58:20;100136.45;;;38.68;23.19
34658;BME280;20865;43.312;27.152;2022-07-06T10:00:49;100129.47;;;38.59;24.10
34658;BME280;20865;43.312;27.152;2022-07-06T10:03:19;100130.31;;;38.59;23.50
34658;BME280;20865;43.312;27.152;2022-07-06T10:05:48;100127.28;;;38.70;24.30
34658;BME280;20865;43.312;27.152;2022-07-06T10:08:17;100127.23;;;38.68;23.99
34658;BME280;20865;43.312;27.152;2022-07-06T10:10:45;100130.56;;;38.67;24.16
34658;BME280;20865;43.312;27.152;2022-07-06T10:13:14;100121.31;;;38.67;23.88
34658;BME280;20865;43.312;27.152;2022-07-06T10:15:44;100123.88;;;38.87;22.45
34658;BME280;20865;43.312;27.152;2022-07-06T10:18:12;100123.49;;;38.92;21.62
34658;BME280;20865;43.312;27.152;2022-07-06T10:20:40;100117.07;;;38.82;23.25
34658;BME280;20865;43.312;27.152;2022-07-06T10:23:09;100121.31;;;38.67;24.54
34658;BME280;20865;43.312;27.152;2022-07-06T10:25:36;100111.80;;;38.74;24.09
34658;BME280;20865;43.312;27.152;2022-07-06T10:28:05;100118.60;;;38.78;24.01
34658;BME280;20865;43.312;27.152;2022-07-06T10:30:35;100118.22;;;38.84;22.56
34658;BME280;20865;43.312;27.152;2022-07-06T10:33:02;100110.38;;;38.93;22.30
34658;BME280;20865;43.312;27.152;2022-07-06T10:35:30;100104.61;;;39.06;22.36
34658;BME280;20865;43.312;27.152;2022-07-06T10:38:06;100098.97;;;39.15;22.98
34658;BME280;20865;43.312;27.152;2022-07-06T10:40:39;100109.67;;;39.27;21.04
34658;BME280;20865;43.312;27.152;2022-07-06T10:43:41;100100.20;;;39.28;22.08
34658;BME280;20865;43.312;27.152;2022-07-06T10:46:09;100097.45;;;39.10;22.10
34658;BME280;20865;43.312;27.152;2022-07-06T10:48:45;100097.45;;;38.89;21.85
34658;BME280;20865;43.312;27.152;2022-07-06T10:51:27;100092.94;;;38.79;22.58
34658;BME280;20865;43.312;27.152;2022-07-06T10:53:58;100085.05;;;38.67;21.03
34658;BME280;20865;43.312;27.152;2022-07-06T10:56:43;100076.91;;;38.83;22.30
34658;BME280;20865;43.312;27.152;2022-07-06T10:59:20;100078.73;;;38.99;21.58
34658;BME280;20865;43.312;27.152;2022-07-06T11:02:11;100077.73;;;39.14;22.81
34658;BME280;20865;43.312;27.152;2022-07-06T11:04:44;100080.27;;;39.16;19.85
34658;BME280;20865;43.312;27.152;2022-07-06T11:07:18;100073.96;;;39.29;21.94
34658;BME280;20865;43.312;27.152;2022-07-06T11:10:03;100073.01;;;39.36;21.84
34658;BME280;20865;43.312;27.152;2022-07-06T11:12:15;100071.20;;;39.41;22.38
34658;BME280;20865;43.312;27.152;2022-07-06T11:14:45;100072.67;;;39.44;20.92
34658;BME280;20865;43.312;27.152;2022-07-06T11:17:13;100069.27;;;39.00;19.49
34658;BME280;20865;43.312;27.152;2022-07-06T11:19:55;100056.12;;;39.10;20.98
34658;BME280;20865;43.312;27.152;2022-07-06T11:22:19;100055.98;;;39.25;21.91
34658;BME280;20865;43.312;27.152;2022-07-06T11:24:47;100058.97;;;39.33;21.49
34658;BME280;20865;43.312;27.152;2022-07-06T11:27:15;100059.34;;;39.37;21.74
34658;BME280;20865;43.312;27.152;2022-07-06T11:29:44;100057.61;;;39.45;20.92
34658;BME280;20865;43.312;27.152;2022-07-06T11:32:12;100059.18;;;39.64;21.43
34658;BME280;20865;43.312;27.152;2022-07-06T11:34:44;100058.54;;;39.71;21.11
34658;BME280;20865;43.312;27.152;2022-07-06T11:37:13;100059.00;;;39.24;19.38
34658;BME280;20865;43.312;27.152;2022-07-06T11:39:44;100047.52;;;39.02;20.10
34658;BME280;20865;43.312;27.152;2022-07-06T11:42:14;100035.44;;;38.78;19.91
34658;BME280;20865;43.312;27.152;2022-07-06T11:44:44;100047.00;;;39.02;21.10
34658;BME280;20865;43.312;27.152;2022-07-06T11:47:13;100043.02;;;39.10;20.74
34658;BME280;20865;43.312;27.152;2022-07-06T11:49:42;100043.79;;;39.29;21.04
34658;BME280;20865;43.312;27.152;2022-07-06T11:52:12;100050.37;;;39.35;20.97
34658;BME280;20865;43.312;27.152;2022-07-06T11:54:40;100048.05;;;39.11;18.94
34658;BME280;20865;43.312;27.152;2022-07-06T11:57:10;100043.48;;;39.07;20.65
34658;BME280;20865;43.312;27.152;2022-07-06T11:59:40;100040.50;;;38.99;21.15
34658;BME280;20865;43.312;27.152;2022-07-06T12:02:14;100032.70;;;38.90;21.21
34658;BME280;20865;43.312;27.152;2022-07-06T12:04:40;100030.55;;;38.82;21.52
34658;BME280;20865;43.312;27.152;2022-07-06T12:07:10;100025.70;;;38.59;20.13
34658;BME280;20865;43.312;27.152;2022-07-06T12:09:42;100029.12;;;38.62;21.97
34658;BME280;20865;43.312;27.152;2022-07-06T12:12:10;100025.15;;;38.60;21.89
34658;BME280;20865;43.312;27.152;2022-07-06T12:14:39;100028.44;;;38.57;22.92
34658;BME280;20865;43.312;27.152;2022-07-06T12:17:16;100023.63;;;38.55;23.75
34658;BME280;20865;43.312;27.152;2022-07-06T12:19:41;100021.31;;;38.52;23.55
34658;BME280;20865;43.312;27.152;2022-07-06T12:22:10;100014.50;;;38.48;23.75
34658;BME280;20865;43.312;27.152;2022-07-06T12:24:41;100017.00;;;38.19;22.50
34658;BME280;20865;43.312;27.152;2022-07-06T12:27:14;100010.88;;;38.20;23.22
34658;BME280;20865;43.312;27.152;2022-07-06T12:30:08;100009.05;;;38.04;22.68
34658;BME280;20865;43.312;27.152;2022-07-06T12:32:36;100000.48;;;38.18;23.13
34658;BME280;20865;43.312;27.152;2022-07-06T12:35:06;100003.66;;;38.21;22.56
34658;BME280;20865;43.312;27.152;2022-07-06T12:37:34;100007.11;;;38.05;22.02
34658;BME280;20865;43.312;27.152;2022-07-06T12:40:02;100001.05;;;37.89;21.38
34658;BME280;20865;43.312;27.152;2022-07-06T12:42:33;99993.45;;;37.87;22.34
34658;BME280;20865;43.312;27.152;2022-07-06T12:45:00;99994.42;;;37.91;21.54
34658;BME280;20865;43.312;27.152;2022-07-06T12:47:28;99995.03;;;38.02;20.74